createdAt,value
2022-12-04T00:01:20.316Z,812.50
2022-12-04T00:06:20.386Z,619.70
2022-12-04T00:11:20.528Z,619.70
2022-12-04T00:16:20.648Z,607.50
2022-12-04T00:21:20.494Z,607.50
2022-12-04T00:26:20.647Z,605.20
2022-12-04T00:31:20.505Z,605.20
2022-12-04T00:36:20.588Z,627.20
2022-12-04T00:41:20.437Z,627.20
2022-12-04T00:46:20.691Z,658.30
2022-12-04T00:51:20.339Z,658.30
2022-12-04T00:56:20.549Z,675.00
2022-12-04T01:01:20.556Z,675.00
2022-12-04T01:06:20.332Z,677.30
2022-12-04T01:11:20.651Z,677.30
2022-12-04T01:16:20.496Z,647.40
2022-12-04T01:21:20.372Z,647.40
2022-12-04T01:26:20.339Z,652.90
2022-12-04T01:31:20.455Z,652.90
2022-12-04T01:36:20.337Z,671.00
2022-12-04T01:41:20.385Z,671.00
2022-12-04T01:46:20.445Z,704.00
2022-12-04T01:51:20.522Z,704.00
2022-12-04T01:56:20.650Z,840.10
2022-12-04T02:01:20.529Z,840.10
2022-12-04T02:06:20.646Z,725.70
2022-12-04T02:11:20.436Z,725.70
2022-12-04T02:16:20.418Z,670.30
2022-12-04T02:21:20.425Z,670.30
2022-12-04T02:26:20.360Z,726.30
2022-12-04T02:31:20.558Z,726.30
2022-12-04T02:36:20.357Z,800.00
2022-12-04T02:41:20.697Z,800.00
2022-12-04T02:46:20.648Z,728.30
2022-12-04T02:51:20.640Z,728.30
2022-12-04T02:56:20.369Z,823.70
2022-12-04T03:01:20.856Z,823.70
2022-12-04T03:06:20.473Z,759.60
2022-12-04T03:11:20.580Z,759.60
2022-12-04T03:16:20.398Z,761.40
2022-12-04T03:21:20.579Z,761.40
2022-12-04T03:26:20.700Z,746.10
2022-12-04T03:31:20.543Z,746.10
2022-12-04T03:36:20.494Z,700.40
2022-12-04T03:41:20.428Z,700.40
2022-12-04T03:46:20.732Z,581.60
2022-12-04T03:51:20.444Z,581.60
2022-12-04T03:56:20.429Z,608.00
2022-12-04T04:01:20.581Z,608.00
2022-12-04T04:06:20.598Z,763.60
2022-12-04T04:11:20.738Z,763.60
2022-12-04T04:16:20.417Z,689.90
2022-12-04T04:21:20.408Z,689.90
2022-12-04T04:26:20.414Z,691.10
2022-12-04T04:31:20.491Z,691.10
2022-12-04T04:36:20.411Z,563.30
2022-12-04T04:41:20.416Z,563.30
2022-12-04T04:46:20.497Z,597.90
2022-12-04T04:51:20.587Z,597.90
2022-12-04T04:56:20.727Z,714.10
2022-12-04T05:01:20.548Z,714.10
2022-12-04T05:06:20.720Z,709.10
2022-12-04T05:11:20.560Z,709.10
2022-12-04T05:16:20.793Z,681.00
2022-12-04T05:21:20.401Z,681.00
2022-12-04T05:26:20.670Z,614.40
2022-12-04T05:31:20.548Z,614.40
2022-12-04T05:36:20.647Z,670.00
2022-12-04T05:41:20.441Z,670.00
2022-12-04T05:46:20.661Z,602.70
2022-12-04T05:51:20.750Z,602.70
2022-12-04T05:56:20.539Z,688.00
2022-12-04T06:01:20.424Z,688.00
2022-12-04T06:06:22.188Z,592.40
2022-12-04T06:11:20.670Z,592.40
2022-12-04T06:16:20.549Z,578.50
2022-12-04T06:21:20.658Z,578.50
2022-12-04T06:26:20.457Z,589.60
2022-12-04T06:31:20.964Z,589.60
2022-12-04T06:36:20.510Z,641.30
2022-12-04T06:41:20.602Z,641.30
2022-12-04T06:46:20.551Z,623.80
2022-12-04T06:51:20.568Z,623.80
2022-12-04T06:56:20.462Z,651.40
2022-12-04T07:01:20.506Z,651.40
2022-12-04T07:06:20.478Z,697.20
2022-12-04T07:11:20.426Z,697.20
2022-12-04T07:16:20.718Z,710.30
2022-12-04T07:21:20.794Z,710.30
2022-12-04T07:26:20.476Z,660.00
2022-12-04T07:31:20.803Z,660.00
2022-12-04T07:36:20.548Z,673.50
2022-12-04T07:41:20.732Z,673.50
2022-12-04T07:46:20.553Z,694.90
2022-12-04T07:51:20.704Z,694.90
2022-12-04T07:56:20.480Z,703.00
2022-12-04T08:01:20.791Z,703.00
2022-12-04T08:06:20.786Z,709.70
2022-12-04T08:11:20.652Z,709.70
2022-12-04T08:16:20.828Z,708.00
2022-12-04T08:21:20.613Z,708.00
2022-12-04T08:26:20.759Z,702.20
2022-12-04T08:31:20.632Z,702.20
2022-12-04T08:36:20.731Z,746.10
2022-12-04T08:41:20.498Z,746.10
2022-12-04T08:46:20.757Z,684.60
2022-12-04T08:51:20.487Z,684.60
2022-12-04T08:56:20.638Z,602.80
2022-12-04T09:01:21.064Z,602.80
2022-12-04T09:06:20.844Z,608.50
2022-12-04T09:11:21.002Z,608.50
2022-12-04T09:16:20.633Z,625.30
2022-12-04T09:21:20.925Z,625.30
2022-12-04T09:26:20.836Z,632.90
2022-12-04T09:31:21.093Z,632.90
2022-12-04T09:36:21.024Z,641.50
2022-12-04T09:41:20.516Z,641.50
2022-12-04T09:46:21.347Z,713.40
2022-12-04T09:51:20.522Z,713.40
2022-12-04T09:56:20.759Z,758.80
2022-12-04T10:01:20.848Z,758.80
2022-12-04T10:06:20.791Z,803.30
2022-12-04T10:11:20.848Z,803.30
2022-12-04T10:16:20.820Z,807.00
2022-12-04T10:21:21.040Z,807.00
2022-12-04T10:26:20.835Z,820.40
2022-12-04T10:31:20.931Z,820.40
2022-12-04T10:36:20.629Z,840.50
2022-12-04T10:41:20.791Z,840.50
2022-12-04T10:46:20.755Z,779.20
2022-12-04T10:51:21.021Z,779.20
2022-12-04T10:56:20.567Z,923.60
2022-12-04T11:01:20.632Z,923.60
2022-12-04T11:06:20.904Z,799.20
2022-12-04T11:11:20.733Z,799.20
2022-12-04T11:16:21.112Z,768.70
2022-12-04T11:21:20.845Z,768.70
2022-12-04T11:26:20.830Z,734.40
2022-12-04T11:31:20.756Z,734.40
2022-12-04T11:36:20.811Z,698.60
2022-12-04T11:41:20.616Z,698.60
2022-12-04T11:46:21.096Z,675.10
2022-12-04T11:51:21.147Z,675.10
2022-12-04T11:56:21.335Z,680.90
2022-12-04T12:01:21.200Z,680.90
2022-12-04T12:06:20.711Z,671.10
2022-12-04T12:11:20.849Z,671.10
2022-12-04T12:16:20.738Z,675.20
2022-12-04T12:21:20.593Z,675.20
2022-12-04T12:31:20.648Z,685.80
2022-12-04T12:36:20.850Z,694.80
2022-12-04T12:41:20.847Z,694.80
2022-12-04T12:46:20.982Z,703.80
2022-12-04T12:51:30.518Z,703.80
2022-12-04T12:56:21.147Z,767.50
2022-12-04T13:01:20.938Z,767.50
2022-12-04T13:06:20.857Z,763.30
2022-12-04T13:11:20.637Z,763.30
2022-12-04T13:16:20.870Z,823.30
2022-12-04T13:21:20.596Z,823.30
2022-12-04T13:31:21.255Z,857.70
2022-12-04T13:36:20.717Z,829.00
2022-12-04T13:41:20.632Z,829.00
2022-12-04T13:46:20.764Z,818.30
2022-12-04T13:51:20.736Z,818.30
2022-12-04T13:56:20.649Z,830.00
2022-12-04T14:01:20.992Z,830.00
2022-12-04T14:06:20.642Z,864.50
2022-12-04T14:11:20.916Z,864.50
2022-12-04T14:16:20.995Z,933.70
2022-12-04T14:21:20.938Z,933.70
2022-12-04T14:26:20.915Z,952.60
2022-12-04T14:31:21.044Z,952.60
2022-12-04T14:36:20.940Z,907.10
2022-12-04T14:41:20.627Z,907.10
2022-12-04T14:46:20.924Z,772.20
2022-12-04T14:51:20.648Z,772.20
2022-12-04T14:56:21.003Z,765.40
2022-12-04T15:01:25.315Z,765.40
2022-12-04T15:06:20.949Z,755.50
2022-12-04T15:11:20.938Z,755.50
2022-12-04T15:16:21.762Z,753.70
2022-12-04T15:21:21.078Z,753.70
2022-12-04T15:26:20.736Z,736.70
2022-12-04T15:31:20.981Z,736.70
2022-12-04T15:36:20.947Z,736.10
2022-12-04T15:41:22.819Z,736.10
2022-12-04T15:46:21.299Z,715.20
2022-12-04T15:51:20.872Z,715.20
2022-12-04T15:56:21.465Z,739.30
2022-12-04T16:01:22.934Z,739.30
2022-12-04T16:06:20.689Z,724.10
2022-12-04T16:11:20.913Z,724.10
2022-12-04T16:16:21.051Z,613.30
2022-12-04T16:21:20.717Z,613.30
2022-12-04T16:26:20.933Z,623.30
2022-12-04T16:31:21.000Z,623.30
2022-12-04T16:36:20.948Z,590.50
2022-12-04T16:41:21.260Z,590.50
2022-12-04T16:46:21.109Z,619.60
2022-12-04T16:51:21.242Z,619.60
2022-12-04T16:56:21.033Z,598.70
2022-12-04T17:01:20.989Z,598.70
2022-12-04T17:06:20.995Z,572.30
2022-12-04T17:11:20.891Z,572.30
2022-12-04T17:16:21.157Z,647.70
2022-12-04T17:21:20.884Z,647.70
2022-12-04T17:26:21.250Z,690.70
2022-12-04T17:31:21.176Z,690.70
2022-12-04T17:36:21.160Z,781.10
2022-12-04T17:41:20.975Z,781.10
2022-12-04T17:46:21.694Z,695.10
2022-12-04T17:51:20.846Z,695.10
2022-12-04T17:56:21.142Z,763.00
2022-12-04T18:01:21.088Z,763.00
2022-12-04T18:06:21.734Z,640.20
2022-12-04T18:11:21.214Z,640.20
2022-12-04T18:16:21.386Z,635.20
2022-12-04T18:21:21.151Z,635.20
2022-12-04T18:26:21.072Z,637.90
2022-12-04T18:31:22.343Z,637.90
2022-12-04T18:36:21.020Z,640.80
2022-12-04T18:41:20.984Z,640.80
2022-12-04T18:46:21.038Z,629.30
2022-12-04T18:51:21.993Z,629.30
2022-12-04T19:01:21.288Z,631.80
2022-12-04T19:11:21.375Z,627.30
2022-12-04T19:16:21.043Z,637.60
2022-12-04T19:21:21.168Z,637.60
2022-12-04T19:26:21.401Z,628.50
2022-12-04T19:31:21.647Z,628.50
2022-12-04T19:36:21.323Z,628.60
2022-12-04T19:41:21.435Z,628.60
2022-12-04T19:46:21.489Z,523.70
2022-12-04T19:51:21.097Z,523.70
2022-12-04T19:56:21.358Z,514.60
2022-12-04T20:06:23.290Z,512.40
2022-12-04T20:11:21.331Z,512.40
2022-12-04T20:16:21.016Z,511.10
2022-12-04T20:21:20.794Z,511.10
2022-12-04T20:26:21.861Z,527.40
2022-12-04T20:31:21.115Z,527.40
2022-12-04T20:36:21.362Z,529.70
2022-12-04T20:41:21.214Z,529.70
2022-12-04T20:46:21.442Z,527.00
2022-12-04T20:56:21.096Z,529.90
2022-12-04T21:01:21.300Z,529.90
2022-12-04T21:06:21.147Z,531.40
2022-12-04T21:11:20.810Z,531.40
2022-12-04T21:16:21.103Z,529.30
2022-12-04T21:21:20.788Z,529.30
2022-12-04T21:26:20.868Z,529.00
2022-12-04T21:31:21.169Z,529.00
2022-12-04T21:36:20.807Z,526.80
2022-12-04T21:41:20.985Z,526.80
2022-12-04T21:46:20.830Z,525.00
2022-12-04T21:51:40.213Z,525.00
2022-12-04T21:56:20.804Z,526.80
2022-12-04T22:06:20.825Z,526.70
2022-12-04T22:11:20.912Z,526.70
2022-12-04T22:21:21.157Z,524.60
2022-12-04T22:26:21.025Z,528.60
2022-12-04T22:31:21.282Z,528.60
2022-12-04T22:36:20.968Z,525.80
2022-12-04T22:41:20.842Z,525.80
2022-12-04T22:46:21.002Z,532.80
2022-12-04T22:51:20.839Z,532.80
2022-12-04T22:56:20.843Z,526.30
2022-12-04T23:01:20.854Z,526.30
2022-12-04T23:06:20.861Z,525.00
2022-12-04T23:11:20.819Z,525.00
2022-12-04T23:16:20.963Z,572.90
2022-12-04T23:21:20.982Z,572.90
2022-12-04T23:26:21.119Z,604.20
2022-12-04T23:31:20.904Z,604.20
2022-12-04T23:36:21.119Z,579.30
2022-12-04T23:41:20.920Z,579.30
2022-12-04T23:46:20.942Z,579.60
2022-12-04T23:51:20.902Z,579.60
2022-12-04T23:56:21.042Z,516.90
